sensor_id;sensor_type;location;lat;lon;timestamp;P1;durP1;ratioP1;P2;durP2;ratioP2
5351;SDS011;2698;51.454;6.736;2023-02-15T00:01:25;63.40;;;32.27;;
5351;SDS011;2698;51.454;6.736;2023-02-15T00:03:52;79.57;;;33.70;;
5351;SDS011;2698;51.454;6.736;2023-02-15T00:06:19;68.63;;;34.27;;
5351;SDS011;2698;51.454;6.736;2023-02-15T00:08:46;67.27;;;36.77;;
5351;SDS011;2698;51.454;6.736;2023-02-15T00:11:13;71.50;;;36.57;;
5351;SDS011;2698;51.454;6.736;2023-02-15T00:13:41;67.07;;;33.33;;
5351;SDS011;2698;51.454;6.736;2023-02-15T00:16:09;61.93;;;30.27;;
5351;SDS011;2698;51.454;6.736;2023-02-15T00:18:38;63.70;;;31.80;;
5351;SDS011;2698;51.454;6.736;2023-02-15T00:21:07;72.43;;;30.93;;
5351;SDS011;2698;51.454;6.736;2023-02-15T00:23:34;59.00;;;30.27;;
5351;SDS011;2698;51.454;6.736;2023-02-15T00:26:05;54.20;;;29.63;;
5351;SDS011;2698;51.454;6.736;2023-02-15T00:28:32;78.57;;;32.60;;
5351;SDS011;2698;51.454;6.736;2023-02-15T00:31:06;81.17;;;34.30;;
5351;SDS011;2698;51.454;6.736;2023-02-15T00:33:33;92.33;;;36.30;;
5351;SDS011;2698;51.454;6.736;2023-02-15T00:36:02;78.60;;;36.30;;
5351;SDS011;2698;51.454;6.736;2023-02-15T00:38:30;72.00;;;35.30;;
5351;SDS011;2698;51.454;6.736;2023-02-15T00:40:59;79.23;;;37.90;;
5351;SDS011;2698;51.454;6.736;2023-02-15T00:43:27;73.37;;;35.87;;
5351;SDS011;2698;51.454;6.736;2023-02-15T00:45:54;86.57;;;35.73;;
5351;SDS011;2698;51.454;6.736;2023-02-15T00:48:21;74.90;;;33.43;;
5351;SDS011;2698;51.454;6.736;2023-02-15T00:50:50;64.33;;;33.90;;
5351;SDS011;2698;51.454;6.736;2023-02-15T00:53:18;57.90;;;29.00;;
5351;SDS011;2698;51.454;6.736;2023-02-15T00:55:46;55.57;;;29.83;;
5351;SDS011;2698;51.454;6.736;2023-02-15T00:58:14;48.57;;;27.57;;
5351;SDS011;2698;51.454;6.736;2023-02-15T01:00:42;50.00;;;26.37;;
5351;SDS011;2698;51.454;6.736;2023-02-15T01:03:09;60.57;;;26.73;;
5351;SDS011;2698;51.454;6.736;2023-02-15T01:05:37;48.13;;;26.97;;
5351;SDS011;2698;51.454;6.736;2023-02-15T01:08:04;55.90;;;28.50;;
5351;SDS011;2698;51.454;6.736;2023-02-15T01:10:33;65.73;;;30.10;;
5351;SDS011;2698;51.454;6.736;2023-02-15T01:13:00;61.53;;;29.23;;
5351;SDS011;2698;51.454;6.736;2023-02-15T01:15:30;46.80;;;27.20;;
5351;SDS011;2698;51.454;6.736;2023-02-15T01:17:57;51.03;;;25.40;;
5351;SDS011;2698;51.454;6.736;2023-02-15T01:20:25;56.30;;;28.90;;
5351;SDS011;2698;51.454;6.736;2023-02-15T01:22:53;48.17;;;26.80;;
5351;SDS011;2698;51.454;6.736;2023-02-15T01:25:21;42.67;;;25.63;;
5351;SDS011;2698;51.454;6.736;2023-02-15T01:27:50;47.70;;;26.57;;
5351;SDS011;2698;51.454;6.736;2023-02-15T01:30:17;42.67;;;24.00;;
5351;SDS011;2698;51.454;6.736;2023-02-15T01:32:44;48.03;;;26.10;;
5351;SDS011;2698;51.454;6.736;2023-02-15T01:35:12;47.57;;;26.87;;
5351;SDS011;2698;51.454;6.736;2023-02-15T01:37:39;43.00;;;24.90;;
5351;SDS011;2698;51.454;6.736;2023-02-15T01:40:07;46.07;;;25.30;;
5351;SDS011;2698;51.454;6.736;2023-02-15T01:42:35;48.50;;;26.53;;
5351;SDS011;2698;51.454;6.736;2023-02-15T01:45:04;36.10;;;24.60;;
5351;SDS011;2698;51.454;6.736;2023-02-15T01:47:33;43.93;;;25.00;;
5351;SDS011;2698;51.454;6.736;2023-02-15T01:50:05;44.53;;;25.33;;
5351;SDS011;2698;51.454;6.736;2023-02-15T01:52:34;42.47;;;25.90;;
5351;SDS011;2698;51.454;6.736;2023-02-15T01:55:01;43.03;;;24.57;;
5351;SDS011;2698;51.454;6.736;2023-02-15T01:57:29;44.00;;;24.87;;
5351;SDS011;2698;51.454;6.736;2023-02-15T01:59:57;40.40;;;25.50;;
5351;SDS011;2698;51.454;6.736;2023-02-15T02:02:27;42.50;;;25.53;;
5351;SDS011;2698;51.454;6.736;2023-02-15T02:04:55;40.70;;;24.73;;
5351;SDS011;2698;51.454;6.736;2023-02-15T02:07:25;41.17;;;25.20;;
5351;SDS011;2698;51.454;6.736;2023-02-15T02:09:53;42.80;;;25.77;;
5351;SDS011;2698;51.454;6.736;2023-02-15T02:12:20;51.77;;;24.53;;
5351;SDS011;2698;51.454;6.736;2023-02-15T02:14:48;45.70;;;25.70;;
5351;SDS011;2698;51.454;6.736;2023-02-15T02:17:16;46.83;;;26.10;;
5351;SDS011;2698;51.454;6.736;2023-02-15T02:19:51;44.17;;;26.17;;
5351;SDS011;2698;51.454;6.736;2023-02-15T02:22:26;54.00;;;26.80;;
5351;SDS011;2698;51.454;6.736;2023-02-15T02:27:45;42.03;;;26.10;;
5351;SDS011;2698;51.454;6.736;2023-02-15T02:30:20;49.67;;;26.60;;
5351;SDS011;2698;51.454;6.736;2023-02-15T02:32:53;50.33;;;26.70;;
5351;SDS011;2698;51.454;6.736;2023-02-15T02:35:26;50.03;;;26.60;;
5351;SDS011;2698;51.454;6.736;2023-02-15T02:37:56;44.33;;;25.80;;
5351;SDS011;2698;51.454;6.736;2023-02-15T02:40:30;42.27;;;26.07;;
5351;SDS011;2698;51.454;6.736;2023-02-15T02:43:00;45.83;;;28.60;;
5351;SDS011;2698;51.454;6.736;2023-02-15T02:45:30;54.73;;;29.93;;
5351;SDS011;2698;51.454;6.736;2023-02-15T02:48:01;54.00;;;29.07;;
5351;SDS011;2698;51.454;6.736;2023-02-15T02:50:30;59.83;;;30.90;;
5351;SDS011;2698;51.454;6.736;2023-02-15T02:52:57;62.13;;;31.37;;
5351;SDS011;2698;51.454;6.736;2023-02-15T02:55:25;50.63;;;32.30;;
5351;SDS011;2698;51.454;6.736;2023-02-15T02:57:55;49.57;;;29.57;;
5351;SDS011;2698;51.454;6.736;2023-02-15T03:00:23;56.03;;;31.10;;
5351;SDS011;2698;51.454;6.736;2023-02-15T03:02:53;59.43;;;30.37;;
5351;SDS011;2698;51.454;6.736;2023-02-15T03:05:25;60.50;;;30.20;;
5351;SDS011;2698;51.454;6.736;2023-02-15T03:07:54;68.43;;;30.90;;
5351;SDS011;2698;51.454;6.736;2023-02-15T03:10:23;61.03;;;31.30;;
5351;SDS011;2698;51.454;6.736;2023-02-15T03:12:51;59.50;;;30.43;;
5351;SDS011;2698;51.454;6.736;2023-02-15T03:15:19;61.47;;;30.83;;
5351;SDS011;2698;51.454;6.736;2023-02-15T03:17:47;57.80;;;30.00;;
5351;SDS011;2698;51.454;6.736;2023-02-15T03:20:16;60.23;;;31.10;;
5351;SDS011;2698;51.454;6.736;2023-02-15T03:22:46;56.43;;;30.23;;
5351;SDS011;2698;51.454;6.736;2023-02-15T03:25:16;65.20;;;30.83;;
5351;SDS011;2698;51.454;6.736;2023-02-15T03:27:46;61.80;;;33.13;;
5351;SDS011;2698;51.454;6.736;2023-02-15T03:30:15;78.23;;;33.33;;
5351;SDS011;2698;51.454;6.736;2023-02-15T03:32:43;63.33;;;33.27;;
5351;SDS011;2698;51.454;6.736;2023-02-15T03:35:11;63.33;;;30.97;;
5351;SDS011;2698;51.454;6.736;2023-02-15T03:37:39;67.27;;;28.63;;
5351;SDS011;2698;51.454;6.736;2023-02-15T03:40:09;58.97;;;29.40;;
5351;SDS011;2698;51.454;6.736;2023-02-15T03:42:58;55.90;;;30.00;;
5351;SDS011;2698;51.454;6.736;2023-02-15T03:45:28;58.17;;;30.73;;
5351;SDS011;2698;51.454;6.736;2023-02-15T03:47:57;54.07;;;30.33;;
5351;SDS011;2698;51.454;6.736;2023-02-15T03:50:26;64.10;;;30.97;;
5351;SDS011;2698;51.454;6.736;2023-02-15T03:53:13;55.90;;;31.80;;
5351;SDS011;2698;51.454;6.736;2023-02-15T03:55:42;68.27;;;31.40;;
5351;SDS011;2698;51.454;6.736;2023-02-15T03:58:12;68.13;;;34.90;;
5351;SDS011;2698;51.454;6.736;2023-02-15T04:00:58;67.53;;;33.60;;
5351;SDS011;2698;51.454;6.736;2023-02-15T04:03:44;79.90;;;35.50;;
5351;SDS011;2698;51.454;6.736;2023-02-15T04:06:12;76.43;;;37.73;;
5351;SDS011;2698;51.454;6.736;2023-02-15T04:08:39;64.60;;;32.50;;
5351;SDS011;2698;51.454;6.736;2023-02-15T04:11:25;71.37;;;33.87;;
5351;SDS011;2698;51.454;6.736;2023-02-15T04:13:52;65.70;;;32.70;;
5351;SDS011;2698;51.454;6.736;2023-02-15T04:16:21;53.33;;;29.80;;
5351;SDS011;2698;51.454;6.736;2023-02-15T04:18:47;62.10;;;31.00;;
5351;SDS011;2698;51.454;6.736;2023-02-15T04:21:32;49.93;;;29.00;;
5351;SDS011;2698;51.454;6.736;2023-02-15T04:24:17;48.63;;;27.30;;
5351;SDS011;2698;51.454;6.736;2023-02-15T04:27:04;55.87;;;30.43;;
5351;SDS011;2698;51.454;6.736;2023-02-15T04:29:31;56.00;;;28.47;;
5351;SDS011;2698;51.454;6.736;2023-02-15T04:31:59;54.30;;;30.13;;
5351;SDS011;2698;51.454;6.736;2023-02-15T04:34:27;51.70;;;27.57;;
5351;SDS011;2698;51.454;6.736;2023-02-15T04:36:54;49.27;;;27.20;;
5351;SDS011;2698;51.454;6.736;2023-02-15T04:39:21;52.90;;;30.27;;
5351;SDS011;2698;51.454;6.736;2023-02-15T04:41:48;45.70;;;26.10;;
5351;SDS011;2698;51.454;6.736;2023-02-15T04:44:17;53.67;;;29.67;;
5351;SDS011;2698;51.454;6.736;2023-02-15T04:46:44;46.57;;;27.17;;
5351;SDS011;2698;51.454;6.736;2023-02-15T04:49:11;58.27;;;27.77;;
5351;SDS011;2698;51.454;6.736;2023-02-15T04:51:38;46.93;;;27.33;;
5351;SDS011;2698;51.454;6.736;2023-02-15T04:54:05;47.73;;;27.17;;
5351;SDS011;2698;51.454;6.736;2023-02-15T04:56:32;51.13;;;29.43;;
5351;SDS011;2698;51.454;6.736;2023-02-15T04:59:02;51.93;;;28.10;;
5351;SDS011;2698;51.454;6.736;2023-02-15T05:01:31;48.70;;;28.43;;
5351;SDS011;2698;51.454;6.736;2023-02-15T05:03:58;49.93;;;28.33;;
5351;SDS011;2698;51.454;6.736;2023-02-15T05:06:25;50.30;;;27.90;;
5351;SDS011;2698;51.454;6.736;2023-02-15T05:08:52;49.80;;;29.50;;
5351;SDS011;2698;51.454;6.736;2023-02-15T05:11:19;50.03;;;29.60;;
5351;SDS011;2698;51.454;6.736;2023-02-15T05:13:47;52.97;;;28.97;;
5351;SDS011;2698;51.454;6.736;2023-02-15T05:16:14;48.00;;;27.53;;
5351;SDS011;2698;51.454;6.736;2023-02-15T05:18:42;53.17;;;30.83;;
5351;SDS011;2698;51.454;6.736;2023-02-15T05:21:09;47.20;;;28.40;;
5351;SDS011;2698;51.454;6.736;2023-02-15T05:23:38;56.07;;;31.33;;
5351;SDS011;2698;51.454;6.736;2023-02-15T05:26:05;50.17;;;29.37;;
5351;SDS011;2698;51.454;6.736;2023-02-15T05:28:50;59.87;;;31.80;;
5351;SDS011;2698;51.454;6.736;2023-02-15T05:31:17;58.33;;;30.73;;
5351;SDS011;2698;51.454;6.736;2023-02-15T05:33:46;63.27;;;32.30;;
5351;SDS011;2698;51.454;6.736;2023-02-15T05:36:13;65.97;;;31.50;;
5351;SDS011;2698;51.454;6.736;2023-02-15T05:38:40;64.07;;;31.63;;
5351;SDS011;2698;51.454;6.736;2023-02-15T05:41:08;77.80;;;32.20;;
5351;SDS011;2698;51.454;6.736;2023-02-15T05:43:35;63.33;;;30.67;;
5351;SDS011;2698;51.454;6.736;2023-02-15T05:46:03;58.23;;;31.90;;
5351;SDS011;2698;51.454;6.736;2023-02-15T05:48:31;62.33;;;30.20;;
5351;SDS011;2698;51.454;6.736;2023-02-15T05:51:00;60.60;;;28.67;;
5351;SDS011;2698;51.454;6.736;2023-02-15T05:53:28;48.47;;;29.13;;
5351;SDS011;2698;51.454;6.736;2023-02-15T05:55:55;52.83;;;29.73;;
5351;SDS011;2698;51.454;6.736;2023-02-15T05:58:25;69.73;;;34.73;;
5351;SDS011;2698;51.454;6.736;2023-02-15T06:00:52;65.30;;;31.60;;
5351;SDS011;2698;51.454;6.736;2023-02-15T06:03:19;69.67;;;31.83;;
5351;SDS011;2698;51.454;6.736;2023-02-15T06:05:47;76.23;;;32.17;;
5351;SDS011;2698;51.454;6.736;2023-02-15T06:08:15;72.53;;;32.73;;
5351;SDS011;2698;51.454;6.736;2023-02-15T06:10:42;72.93;;;33.67;;
5351;SDS011;2698;51.454;6.736;2023-02-15T06:13:10;77.77;;;35.20;;
5351;SDS011;2698;51.454;6.736;2023-02-15T06:15:37;69.23;;;33.07;;
5351;SDS011;2698;51.454;6.736;2023-02-15T06:18:04;65.07;;;32.70;;
5351;SDS011;2698;51.454;6.736;2023-02-15T06:20:31;70.27;;;32.97;;
5351;SDS011;2698;51.454;6.736;2023-02-15T06:22:58;81.47;;;33.00;;
5351;SDS011;2698;51.454;6.736;2023-02-15T06:25:27;60.77;;;30.07;;
5351;SDS011;2698;51.454;6.736;2023-02-15T06:27:54;78.33;;;32.30;;
5351;SDS011;2698;51.454;6.736;2023-02-15T06:30:21;74.37;;;34.27;;
5351;SDS011;2698;51.454;6.736;2023-02-15T06:32:49;66.80;;;33.63;;
5351;SDS011;2698;51.454;6.736;2023-02-15T06:35:16;77.80;;;36.53;;
5351;SDS011;2698;51.454;6.736;2023-02-15T06:37:45;71.47;;;32.97;;
5351;SDS011;2698;51.454;6.736;2023-02-15T06:40:12;68.27;;;34.70;;
5351;SDS011;2698;51.454;6.736;2023-02-15T06:42:42;70.83;;;33.50;;
5351;SDS011;2698;51.454;6.736;2023-02-15T06:45:09;62.33;;;30.83;;
5351;SDS011;2698;51.454;6.736;2023-02-15T06:47:37;63.47;;;29.57;;
5351;SDS011;2698;51.454;6.736;2023-02-15T06:50:04;65.70;;;31.80;;
5351;SDS011;2698;51.454;6.736;2023-02-15T06:52:32;73.50;;;33.53;;
5351;SDS011;2698;51.454;6.736;2023-02-15T06:54:59;66.77;;;32.10;;
5351;SDS011;2698;51.454;6.736;2023-02-15T06:57:26;72.97;;;32.67;;
5351;SDS011;2698;51.454;6.736;2023-02-15T06:59:54;63.10;;;31.00;;
5351;SDS011;2698;51.454;6.736;2023-02-15T07:02:23;51.90;;;29.33;;
5351;SDS011;2698;51.454;6.736;2023-02-15T07:04:50;50.27;;;26.07;;
5351;SDS011;2698;51.454;6.736;2023-02-15T07:07:18;54.80;;;27.37;;
5351;SDS011;2698;51.454;6.736;2023-02-15T07:09:45;61.93;;;26.43;;
5351;SDS011;2698;51.454;6.736;2023-02-15T07:12:12;43.90;;;25.90;;
5351;SDS011;2698;51.454;6.736;2023-02-15T07:14:58;50.27;;;25.77;;
5351;SDS011;2698;51.454;6.736;2023-02-15T07:17:26;59.20;;;26.80;;
5351;SDS011;2698;51.454;6.736;2023-02-15T07:19:54;49.50;;;27.50;;
5351;SDS011;2698;51.454;6.736;2023-02-15T07:22:23;47.17;;;25.87;;
5351;SDS011;2698;51.454;6.736;2023-02-15T07:24:50;63.87;;;26.30;;
5351;SDS011;2698;51.454;6.736;2023-02-15T07:27:19;43.50;;;25.87;;
5351;SDS011;2698;51.454;6.736;2023-02-15T07:29:47;46.73;;;25.70;;
5351;SDS011;2698;51.454;6.736;2023-02-15T07:32:15;49.80;;;22.80;;
5351;SDS011;2698;51.454;6.736;2023-02-15T07:34:42;44.27;;;24.50;;
5351;SDS011;2698;51.454;6.736;2023-02-15T07:37:09;42.33;;;24.97;;
5351;SDS011;2698;51.454;6.736;2023-02-15T07:39:37;44.67;;;25.43;;
5351;SDS011;2698;51.454;6.736;2023-02-15T07:42:04;46.30;;;24.50;;
5351;SDS011;2698;51.454;6.736;2023-02-15T07:44:31;46.50;;;24.67;;
5351;SDS011;2698;51.454;6.736;2023-02-15T07:46:58;42.53;;;22.93;;
5351;SDS011;2698;51.454;6.736;2023-02-15T07:49:26;44.67;;;23.53;;
5351;SDS011;2698;51.454;6.736;2023-02-15T07:51:54;49.67;;;25.43;;
5351;SDS011;2698;51.454;6.736;2023-02-15T07:54:21;46.63;;;24.20;;
5351;SDS011;2698;51.454;6.736;2023-02-15T07:56:48;41.10;;;23.60;;
5351;SDS011;2698;51.454;6.736;2023-02-15T07:59:15;50.10;;;23.90;;
5351;SDS011;2698;51.454;6.736;2023-02-15T08:01:42;40.57;;;24.03;;
5351;SDS011;2698;51.454;6.736;2023-02-15T08:04:09;39.60;;;22.60;;
5351;SDS011;2698;51.454;6.736;2023-02-15T08:06:38;41.20;;;22.63;;
5351;SDS011;2698;51.454;6.736;2023-02-15T08:09:06;40.57;;;23.93;;
5351;SDS011;2698;51.454;6.736;2023-02-15T08:11:33;43.90;;;25.17;;
5351;SDS011;2698;51.454;6.736;2023-02-15T08:14:03;44.23;;;24.63;;
5351;SDS011;2698;51.454;6.736;2023-02-15T08:16:32;46.70;;;23.40;;
5351;SDS011;2698;51.454;6.736;2023-02-15T08:19:00;48.77;;;24.10;;
5351;SDS011;2698;51.454;6.736;2023-02-15T08:21:28;40.87;;;22.17;;
5351;SDS011;2698;51.454;6.736;2023-02-15T08:23:57;45.43;;;25.27;;
5351;SDS011;2698;51.454;6.736;2023-02-15T08:26:25;38.10;;;22.30;;
5351;SDS011;2698;51.454;6.736;2023-02-15T08:28:53;61.43;;;23.57;;
5351;SDS011;2698;51.454;6.736;2023-02-15T08:31:21;54.43;;;25.50;;
5351;SDS011;2698;51.454;6.736;2023-02-15T08:33:49;45.03;;;24.10;;
5351;SDS011;2698;51.454;6.736;2023-02-15T08:36:17;42.93;;;23.17;;
5351;SDS011;2698;51.454;6.736;2023-02-15T08:38:45;41.27;;;25.00;;
5351;SDS011;2698;51.454;6.736;2023-02-15T08:41:14;36.93;;;21.70;;
5351;SDS011;2698;51.454;6.736;2023-02-15T08:43:42;37.70;;;22.43;;
5351;SDS011;2698;51.454;6.736;2023-02-15T08:46:10;35.47;;;21.17;;
5351;SDS011;2698;51.454;6.736;2023-02-15T08:48:37;36.43;;;22.10;;
5351;SDS011;2698;51.454;6.736;2023-02-15T08:51:08;39.23;;;23.07;;
5351;SDS011;2698;51.454;6.736;2023-02-15T08:53:37;41.20;;;22.23;;
5351;SDS011;2698;51.454;6.736;2023-02-15T08:56:04;47.97;;;23.30;;
5351;SDS011;2698;51.454;6.736;2023-02-15T08:58:33;44.63;;;22.27;;
5351;SDS011;2698;51.454;6.736;2023-02-15T09:01:00;38.90;;;22.07;;
5351;SDS011;2698;51.454;6.736;2023-02-15T09:03:28;42.13;;;22.90;;
5351;SDS011;2698;51.454;6.736;2023-02-15T09:05:58;46.17;;;22.03;;
5351;SDS011;2698;51.454;6.736;2023-02-15T09:08:26;36.47;;;21.00;;
5351;SDS011;2698;51.454;6.736;2023-02-15T09:10:53;41.63;;;23.40;;
5351;SDS011;2698;51.454;6.736;2023-02-15T09:13:20;49.30;;;24.80;;
5351;SDS011;2698;51.454;6.736;2023-02-15T09:15:49;45.30;;;22.47;;
5351;SDS011;2698;51.454;6.736;2023-02-15T09:18:16;46.90;;;23.23;;
5351;SDS011;2698;51.454;6.736;2023-02-15T09:20:43;54.03;;;22.40;;
5351;SDS011;2698;51.454;6.736;2023-02-15T09:23:11;43.77;;;22.80;;
5351;SDS011;2698;51.454;6.736;2023-02-15T09:25:39;58.50;;;27.73;;
5351;SDS011;2698;51.454;6.736;2023-02-15T09:28:07;40.47;;;23.60;;
5351;SDS011;2698;51.454;6.736;2023-02-15T09:30:34;44.17;;;24.23;;
5351;SDS011;2698;51.454;6.736;2023-02-15T09:33:02;43.70;;;20.40;;
5351;SDS011;2698;51.454;6.736;2023-02-15T09:35:30;44.23;;;21.90;;
5351;SDS011;2698;51.454;6.736;2023-02-15T09:37:57;46.73;;;21.50;;
5351;SDS011;2698;51.454;6.736;2023-02-15T09:40:24;42.83;;;22.40;;
5351;SDS011;2698;51.454;6.736;2023-02-15T09:45:42;44.30;;;23.17;;
5351;SDS011;2698;51.454;6.736;2023-02-15T09:48:23;51.97;;;24.83;;
5351;SDS011;2698;51.454;6.736;2023-02-15T09:50:57;55.20;;;23.57;;
5351;SDS011;2698;51.454;6.736;2023-02-15T09:53:29;58.97;;;26.40;;
5351;SDS011;2698;51.454;6.736;2023-02-15T09:56:00;51.43;;;26.17;;
5351;SDS011;2698;51.454;6.736;2023-02-15T09:58:31;63.20;;;22.10;;
5351;SDS011;2698;51.454;6.736;2023-02-15T10:01:01;57.40;;;25.83;;
5351;SDS011;2698;51.454;6.736;2023-02-15T10:03:42;45.87;;;22.90;;
5351;SDS011;2698;51.454;6.736;2023-02-15T10:06:18;64.70;;;24.60;;
5351;SDS011;2698;51.454;6.736;2023-02-15T10:08:52;76.97;;;27.23;;
5351;SDS011;2698;51.454;6.736;2023-02-15T10:11:25;71.20;;;27.97;;
5351;SDS011;2698;51.454;6.736;2023-02-15T10:14:09;72.73;;;26.33;;
5351;SDS011;2698;51.454;6.736;2023-02-15T10:16:41;63.57;;;27.30;;
5351;SDS011;2698;51.454;6.736;2023-02-15T10:19:12;56.30;;;24.73;;
5351;SDS011;2698;51.454;6.736;2023-02-15T10:21:45;57.37;;;23.33;;
5351;SDS011;2698;51.454;6.736;2023-02-15T10:24:17;43.73;;;22.23;;
5351;SDS011;2698;51.454;6.736;2023-02-15T10:26:47;62.57;;;23.00;;
5351;SDS011;2698;51.454;6.736;2023-02-15T10:29:16;38.10;;;19.20;;
5351;SDS011;2698;51.454;6.736;2023-02-15T10:31:49;31.60;;;18.70;;
5351;SDS011;2698;51.454;6.736;2023-02-15T10:34:19;34.93;;;21.00;;
5351;SDS011;2698;51.454;6.736;2023-02-15T10:36:52;50.00;;;21.40;;
5351;SDS011;2698;51.454;6.736;2023-02-15T10:39:21;47.63;;;19.83;;
5351;SDS011;2698;51.454;6.736;2023-02-15T10:41:52;52.37;;;19.27;;
5351;SDS011;2698;51.454;6.736;2023-02-15T10:44:25;39.87;;;19.53;;
5351;SDS011;2698;51.454;6.736;2023-02-15T10:47:05;36.70;;;19.77;;
5351;SDS011;2698;51.454;6.736;2023-02-15T10:49:53;43.93;;;22.13;;
5351;SDS011;2698;51.454;6.736;2023-02-15T10:52:25;33.40;;;19.40;;
5351;SDS011;2698;51.454;6.736;2023-02-15T10:54:57;30.67;;;18.73;;
5351;SDS011;2698;51.454;6.736;2023-02-15T10:57:30;34.30;;;19.27;;
5351;SDS011;2698;51.454;6.736;2023-02-15T11:00:03;33.00;;;19.13;;
5351;SDS011;2698;51.454;6.736;2023-02-15T11:02:35;34.40;;;20.63;;
5351;SDS011;2698;51.454;6.736;2023-02-15T11:05:13;31.60;;;17.93;;
5351;SDS011;2698;51.454;6.736;2023-02-15T11:07:43;27.63;;;18.23;;
5351;SDS011;2698;51.454;6.736;2023-02-15T11:10:14;26.27;;;17.17;;
5351;SDS011;2698;51.454;6.736;2023-02-15T11:12:48;25.27;;;17.53;;
5351;SDS011;2698;51.454;6.736;2023-02-15T11:15:18;37.03;;;19.50;;
5351;SDS011;2698;51.454;6.736;2023-02-15T11:17:47;33.60;;;18.97;;
5351;SDS011;2698;51.454;6.736;2023-02-15T11:20:18;31.30;;;18.70;;
5351;SDS011;2698;51.454;6.736;2023-02-15T11:22:49;32.50;;;17.80;;
5351;SDS011;2698;51.454;6.736;2023-02-15T11:25:19;34.60;;;17.83;;
5351;SDS011;2698;51.454;6.736;2023-02-15T11:27:47;37.30;;;17.33;;
5351;SDS011;2698;51.454;6.736;2023-02-15T11:30:17;33.90;;;17.63;;
5351;SDS011;2698;51.454;6.736;2023-02-15T11:32:46;37.30;;;18.00;;
5351;SDS011;2698;51.454;6.736;2023-02-15T11:35:20;30.30;;;17.60;;
5351;SDS011;2698;51.454;6.736;2023-02-15T11:37:50;27.20;;;17.50;;
5351;SDS011;2698;51.454;6.736;2023-02-15T11:40:19;32.33;;;16.97;;
5351;SDS011;2698;51.454;6.736;2023-02-15T11:42:49;35.33;;;18.27;;
5351;SDS011;2698;51.454;6.736;2023-02-15T11:45:20;39.37;;;19.70;;
5351;SDS011;2698;51.454;6.736;2023-02-15T11:47:48;32.60;;;19.00;;
5351;SDS011;2698;51.454;6.736;2023-02-15T11:50:17;27.73;;;17.77;;
5351;SDS011;2698;51.454;6.736;2023-02-15T11:52:48;30.63;;;18.20;;
5351;SDS011;2698;51.454;6.736;2023-02-15T11:55:18;25.93;;;17.83;;
5351;SDS011;2698;51.454;6.736;2023-02-15T11:57:46;30.53;;;18.00;;
5351;SDS011;2698;51.454;6.736;2023-02-15T12:00:16;38.00;;;18.93;;
5351;SDS011;2698;51.454;6.736;2023-02-15T12:02:48;34.93;;;17.30;;
5351;SDS011;2698;51.454;6.736;2023-02-15T12:05:19;33.00;;;18.13;;
5351;SDS011;2698;51.454;6.736;2023-02-15T12:07:50;35.87;;;18.40;;
5351;SDS011;2698;51.454;6.736;2023-02-15T12:10:20;36.83;;;19.47;;
5351;SDS011;2698;51.454;6.736;2023-02-15T12:12:49;38.80;;;19.33;;
5351;SDS011;2698;51.454;6.736;2023-02-15T12:15:34;32.90;;;16.90;;
5351;SDS011;2698;51.454;6.736;2023-02-15T12:18:02;34.40;;;16.40;;
5351;SDS011;2698;51.454;6.736;2023-02-15T12:20:31;40.43;;;17.67;;
5351;SDS011;2698;51.454;6.736;2023-02-15T12:23:00;38.10;;;19.57;;
5351;SDS011;2698;51.454;6.736;2023-02-15T12:25:29;33.00;;;20.20;;
5351;SDS011;2698;51.454;6.736;2023-02-15T12:27:56;29.03;;;17.40;;
5351;SDS011;2698;51.454;6.736;2023-02-15T12:30:25;32.60;;;16.83;;
5351;SDS011;2698;51.454;6.736;2023-02-15T12:32:56;28.33;;;17.03;;
5351;SDS011;2698;51.454;6.736;2023-02-15T12:35:26;32.30;;;16.47;;
5351;SDS011;2698;51.454;6.736;2023-02-15T12:37:55;33.00;;;17.53;;
5351;SDS011;2698;51.454;6.736;2023-02-15T12:40:24;41.90;;;18.47;;
5351;SDS011;2698;51.454;6.736;2023-02-15T12:42:52;31.40;;;18.90;;
5351;SDS011;2698;51.454;6.736;2023-02-15T12:45:21;36.07;;;20.47;;
5351;SDS011;2698;51.454;6.736;2023-02-15T12:47:49;27.00;;;15.93;;
5351;SDS011;2698;51.454;6.736;2023-02-15T12:50:34;29.53;;;15.43;;
5351;SDS011;2698;51.454;6.736;2023-02-15T12:53:06;22.87;;;14.93;;
5351;SDS011;2698;51.454;6.736;2023-02-15T12:55:35;28.40;;;15.77;;
5351;SDS011;2698;51.454;6.736;2023-02-15T12:58:06;33.40;;;18.70;;
5351;SDS011;2698;51.454;6.736;2023-02-15T13:00:33;29.43;;;17.00;;
5351;SDS011;2698;51.454;6.736;2023-02-15T13:03:00;33.90;;;18.17;;
5351;SDS011;2698;51.454;6.736;2023-02-15T13:05:30;37.27;;;21.37;;
5351;SDS011;2698;51.454;6.736;2023-02-15T13:07:58;37.47;;;19.30;;
5351;SDS011;2698;51.454;6.736;2023-02-15T13:10:27;36.37;;;17.37;;
5351;SDS011;2698;51.454;6.736;2023-02-15T13:12:57;25.57;;;15.97;;
5351;SDS011;2698;51.454;6.736;2023-02-15T13:15:25;32.90;;;17.40;;
5351;SDS011;2698;51.454;6.736;2023-02-15T13:17:53;36.67;;;18.00;;
5351;SDS011;2698;51.454;6.736;2023-02-15T13:20:22;34.80;;;17.57;;
5351;SDS011;2698;51.454;6.736;2023-02-15T13:22:50;40.87;;;19.60;;
5351;SDS011;2698;51.454;6.736;2023-02-15T13:25:18;35.77;;;18.40;;
5351;SDS011;2698;51.454;6.736;2023-02-15T13:27:48;57.80;;;20.60;;
5351;SDS011;2698;51.454;6.736;2023-02-15T13:30:22;46.57;;;19.27;;
5351;SDS011;2698;51.454;6.736;2023-02-15T13:32:51;37.40;;;18.60;;
5351;SDS011;2698;51.454;6.736;2023-02-15T13:35:19;39.90;;;19.70;;
5351;SDS011;2698;51.454;6.736;2023-02-15T13:38:02;51.93;;;18.90;;
5351;SDS011;2698;51.454;6.736;2023-02-15T13:40:33;40.80;;;18.57;;
5351;SDS011;2698;51.454;6.736;2023-02-15T13:43:03;41.20;;;17.13;;
5351;SDS011;2698;51.454;6.736;2023-02-15T13:45:35;35.33;;;16.97;;
5351;SDS011;2698;51.454;6.736;2023-02-15T13:48:09;33.43;;;16.50;;
5351;SDS011;2698;51.454;6.736;2023-02-15T13:50:44;33.00;;;16.20;;
5351;SDS011;2698;51.454;6.736;2023-02-15T13:53:27;36.10;;;17.30;;
5351;SDS011;2698;51.454;6.736;2023-02-15T13:55:56;45.50;;;17.43;;
5351;SDS011;2698;51.454;6.736;2023-02-15T13:58:33;40.20;;;22.37;;
5351;SDS011;2698;51.454;6.736;2023-02-15T14:01:08;38.67;;;21.50;;
5351;SDS011;2698;51.454;6.736;2023-02-15T14:06:28;32.23;;;15.33;;
5351;SDS011;2698;51.454;6.736;2023-02-15T14:09:03;27.73;;;14.93;;
5351;SDS011;2698;51.454;6.736;2023-02-15T14:11:35;32.87;;;15.23;;
5351;SDS011;2698;51.454;6.736;2023-02-15T14:14:10;28.07;;;15.97;;
5351;SDS011;2698;51.454;6.736;2023-02-15T14:16:41;39.73;;;16.90;;
5351;SDS011;2698;51.454;6.736;2023-02-15T14:19:16;47.73;;;16.53;;
5351;SDS011;2698;51.454;6.736;2023-02-15T14:21:48;25.97;;;15.40;;
5351;SDS011;2698;51.454;6.736;2023-02-15T14:24:18;30.63;;;16.13;;
5351;SDS011;2698;51.454;6.736;2023-02-15T14:26:49;41.43;;;15.00;;
5351;SDS011;2698;51.454;6.736;2023-02-15T14:29:24;31.10;;;15.67;;
5351;SDS011;2698;51.454;6.736;2023-02-15T14:31:55;37.10;;;17.10;;
5351;SDS011;2698;51.454;6.736;2023-02-15T14:34:23;32.40;;;17.60;;
5351;SDS011;2698;51.454;6.736;2023-02-15T14:36:51;29.10;;;15.60;;
5351;SDS011;2698;51.454;6.736;2023-02-15T14:39:23;29.73;;;15.90;;
5351;SDS011;2698;51.454;6.736;2023-02-15T14:42:11;37.73;;;17.13;;
5351;SDS011;2698;51.454;6.736;2023-02-15T14:44:42;37.43;;;16.57;;
5351;SDS011;2698;51.454;6.736;2023-02-15T14:47:15;35.80;;;16.10;;
5351;SDS011;2698;51.454;6.736;2023-02-15T14:49:44;32.80;;;15.37;;
5351;SDS011;2698;51.454;6.736;2023-02-15T14:52:11;36.40;;;18.30;;
5351;SDS011;2698;51.454;6.736;2023-02-15T14:54:58;40.90;;;17.60;;
5351;SDS011;2698;51.454;6.736;2023-02-15T14:57:26;36.90;;;17.67;;
5351;SDS011;2698;51.454;6.736;2023-02-15T14:59:55;32.30;;;17.93;;
5351;SDS011;2698;51.454;6.736;2023-02-15T15:02:25;31.53;;;16.67;;
5351;SDS011;2698;51.454;6.736;2023-02-15T15:04:55;31.83;;;16.10;;
5351;SDS011;2698;51.454;6.736;2023-02-15T15:07:24;32.27;;;17.00;;
5351;SDS011;2698;51.454;6.736;2023-02-15T15:09:58;50.17;;;17.57;;
5351;SDS011;2698;51.454;6.736;2023-02-15T15:15:11;43.53;;;17.40;;